Terminal Aerodrome Forecast
Issued by NWS Pueblo, CO

Home | Current Version | Previous Version | Text Only | Print | Product List | Glossary On
Versions: 1 2 3 4 5 6 7 8 9 10 11 12 13 14 15 16 17 18 19 20 21 22 23 24 25
000
FTUS45 KPUB 112320
TAFPUB
TAF
KPUB 112320Z 1200/1224 30010KT P6SM SCT250
     FM120100 06007KT P6SM SCT250
     FM120400 VRB05KT P6SM FEW250
     FM122000 11007KT P6SM FEW250=

USA.gov is the U.S. government's official web portal to all federal, state and local government web resources and services.